createdAt,value
2017-07-04T00:01:27.370Z,7.00
2017-07-04T00:03:54.779Z,6.77
2017-07-04T00:06:22.186Z,6.30
2017-07-04T00:08:49.578Z,5.70
2017-07-04T00:11:16.983Z,6.37
2017-07-04T00:13:44.387Z,6.80
2017-07-04T00:16:11.782Z,5.83
2017-07-04T00:18:39.184Z,6.40
2017-07-04T00:21:06.585Z,6.93
2017-07-04T00:23:33.983Z,7.20
2017-07-04T00:26:01.379Z,6.73
2017-07-04T00:28:28.795Z,6.60
2017-07-04T00:30:56.183Z,7.67
2017-07-04T00:33:23.591Z,7.50
2017-07-04T00:35:50.979Z,6.90
2017-07-04T00:38:18.383Z,7.77
2017-07-04T00:40:45.771Z,6.47
2017-07-04T00:43:13.171Z,7.23
2017-07-04T00:45:40.579Z,8.80
2017-07-04T00:48:07.975Z,7.40
2017-07-04T00:50:35.386Z,6.73
2017-07-04T00:53:02.783Z,6.80
2017-07-04T00:55:30.192Z,6.97
2017-07-04T00:57:57.605Z,7.60
2017-07-04T01:00:25.013Z,8.43
2017-07-04T01:02:52.411Z,6.70
2017-07-04T01:05:19.818Z,7.57
2017-07-04T01:07:47.210Z,7.37
2017-07-04T01:10:14.617Z,7.57
2017-07-04T01:12:42.013Z,7.47
2017-07-04T01:15:09.423Z,8.30
2017-07-04T01:17:36.812Z,7.43
2017-07-04T01:20:04.219Z,9.40
2017-07-04T01:22:31.608Z,7.40
2017-07-04T01:24:59.007Z,8.47
2017-07-04T01:27:26.402Z,8.83
2017-07-04T01:29:53.802Z,8.20
2017-07-04T01:32:21.430Z,6.93
2017-07-04T01:34:48.831Z,8.13
2017-07-04T01:37:16.224Z,7.80
2017-07-04T01:39:43.629Z,8.33
2017-07-04T01:42:16.792Z,6.50
2017-07-04T01:44:44.204Z,8.10
2017-07-04T01:47:11.604Z,8.43
2017-07-04T01:49:39.015Z,7.93
2017-07-04T01:52:06.424Z,8.67
2017-07-04T01:54:33.822Z,7.00
2017-07-04T01:57:01.221Z,8.03
2017-07-04T01:59:28.618Z,7.77
2017-07-04T02:01:56.336Z,7.20
2017-07-04T02:04:23.740Z,9.13
2017-07-04T02:06:51.139Z,9.47
2017-07-04T02:09:18.751Z,9.40
2017-07-04T02:11:46.158Z,6.90
2017-07-04T02:14:13.548Z,8.10
2017-07-04T02:16:41.178Z,9.57
2017-07-04T02:19:08.570Z,9.20
2017-07-04T02:21:35.971Z,9.70
2017-07-04T02:24:03.367Z,9.77
2017-07-04T02:26:30.788Z,10.40
2017-07-04T02:28:58.183Z,9.73
2017-07-04T02:31:25.591Z,10.87
2017-07-04T02:33:52.996Z,10.93
2017-07-04T02:36:20.407Z,9.80
2017-07-04T02:38:47.807Z,9.67
2017-07-04T02:41:15.212Z,10.50
2017-07-04T02:43:42.630Z,10.13
2017-07-04T02:46:10.039Z,10.90
2017-07-04T02:48:37.446Z,10.83
2017-07-04T02:51:04.856Z,10.50
2017-07-04T02:53:32.258Z,11.80
2017-07-04T02:55:59.673Z,10.00
2017-07-04T02:58:27.333Z,11.07
2017-07-04T03:00:54.736Z,11.70
2017-07-04T03:03:22.138Z,10.90
2017-07-04T03:05:49.547Z,10.10
2017-07-04T03:08:16.938Z,9.53
2017-07-04T03:10:44.367Z,10.77
2017-07-04T03:13:11.762Z,10.10
2017-07-04T03:15:39.165Z,9.47
2017-07-04T03:18:06.567Z,10.40
2017-07-04T03:20:33.961Z,10.17
2017-07-04T03:23:01.376Z,9.23
2017-07-04T03:25:28.775Z,9.30
2017-07-04T03:27:56.183Z,8.70
2017-07-04T03:30:23.584Z,9.43
2017-07-04T03:32:50.991Z,9.80
2017-07-04T03:35:18.390Z,7.70
2017-07-04T03:40:19.530Z,9.07
2017-07-04T03:42:46.934Z,9.50
2017-07-04T03:45:14.639Z,8.80
2017-07-04T03:47:42.039Z,9.10
2017-07-04T03:50:09.431Z,8.07
2017-07-04T03:52:36.833Z,8.90
2017-07-04T03:55:04.223Z,8.23
2017-07-04T03:57:31.619Z,7.90
2017-07-04T03:59:59.020Z,11.10
2017-07-04T04:02:26.424Z,11.00
2017-07-04T04:04:53.822Z,10.20
2017-07-04T04:07:21.244Z,11.00
2017-07-04T04:09:48.645Z,10.37
2017-07-04T04:12:16.064Z,9.50
2017-07-04T04:14:43.489Z,11.43
2017-07-04T04:17:10.903Z,11.13
2017-07-04T04:19:38.619Z,11.40
2017-07-04T04:22:06.027Z,11.67
2017-07-04T04:24:33.442Z,10.43
2017-07-04T04:27:00.868Z,10.80
2017-07-04T04:29:28.282Z,11.30
2017-07-04T04:31:55.671Z,11.20
2017-07-04T04:34:23.091Z,11.60
2017-07-04T04:36:50.483Z,11.27
2017-07-04T04:39:17.931Z,10.47
2017-07-04T04:41:45.323Z,9.90
2017-07-04T04:44:12.724Z,10.30
2017-07-04T04:46:40.120Z,8.60
2017-07-04T04:49:07.528Z,7.83
2017-07-04T04:51:34.926Z,7.33
2017-07-04T04:54:02.336Z,6.97
2017-07-04T04:56:29.728Z,6.63
2017-07-04T04:58:57.132Z,5.47
2017-07-04T05:01:24.536Z,5.60
2017-07-04T05:03:51.939Z,5.57
2017-07-04T05:06:19.340Z,5.30
2017-07-04T05:08:46.744Z,5.73
2017-07-04T05:11:14.141Z,4.37
2017-07-04T05:13:41.538Z,4.67
2017-07-04T05:16:08.936Z,4.77
2017-07-04T05:18:36.662Z,4.17
2017-07-04T05:21:04.052Z,3.27
2017-07-04T05:23:31.467Z,4.10
2017-07-04T05:25:58.860Z,3.63
2017-07-04T05:28:26.260Z,3.20
2017-07-04T05:30:53.939Z,3.70
2017-07-04T05:33:21.336Z,2.30
2017-07-04T05:35:48.727Z,3.40
2017-07-04T05:38:21.870Z,2.80
2017-07-04T05:40:49.275Z,3.50
2017-07-04T05:43:16.684Z,3.23
2017-07-04T05:45:44.092Z,2.97
2017-07-04T05:48:11.489Z,2.97
2017-07-04T05:50:38.892Z,3.00
2017-07-04T05:53:06.299Z,2.33
2017-07-04T05:55:33.705Z,2.67
2017-07-04T05:58:01.104Z,3.03
2017-07-04T06:00:28.496Z,3.30
2017-07-04T06:02:55.904Z,2.10
2017-07-04T06:05:23.295Z,1.93
2017-07-04T06:07:50.695Z,2.07
2017-07-04T06:10:18.095Z,2.33
2017-07-04T06:12:45.497Z,2.37
2017-07-04T06:15:12.892Z,2.00
2017-07-04T06:17:40.295Z,2.30
2017-07-04T06:20:07.693Z,2.33
2017-07-04T06:22:35.079Z,1.90
2017-07-04T06:25:02.484Z,2.03
2017-07-04T06:27:29.879Z,1.47
2017-07-04T06:29:57.283Z,1.77
2017-07-04T06:32:24.679Z,1.80
2017-07-04T06:34:52.076Z,1.73
2017-07-04T06:37:19.475Z,1.97
2017-07-04T06:39:47.957Z,1.90
2017-07-04T06:42:15.347Z,1.77
2017-07-04T06:44:42.747Z,1.53
2017-07-04T06:47:10.152Z,1.83
2017-07-04T06:49:37.557Z,1.80
2017-07-04T06:52:04.951Z,1.57
2017-07-04T06:54:32.355Z,2.33
2017-07-04T06:56:59.748Z,1.73
2017-07-04T06:59:27.144Z,2.23
2017-07-04T07:01:54.558Z,2.33
2017-07-04T07:04:22.163Z,1.70
2017-07-04T07:06:49.567Z,2.17
2017-07-04T07:09:16.960Z,1.30
2017-07-04T07:11:44.364Z,1.83
2017-07-04T07:14:11.758Z,1.40
2017-07-04T07:16:39.165Z,2.57
2017-07-04T07:19:06.560Z,1.87
2017-07-04T07:21:33.955Z,1.50
2017-07-04T07:24:01.345Z,2.00
2017-07-04T07:26:28.742Z,1.50
2017-07-04T07:28:56.133Z,1.40
2017-07-04T07:31:23.536Z,1.70
2017-07-04T07:33:50.936Z,1.37
2017-07-04T07:36:18.338Z,1.23
2017-07-04T07:38:45.746Z,1.80
2017-07-04T07:41:13.147Z,1.60
2017-07-04T07:43:40.547Z,1.33
2017-07-04T07:46:07.959Z,2.00
2017-07-04T07:48:35.363Z,1.67
2017-07-04T07:51:02.771Z,1.60
2017-07-04T07:53:30.380Z,1.53
2017-07-04T07:55:57.788Z,1.37
2017-07-04T07:58:25.191Z,1.63
2017-07-04T08:00:52.594Z,1.53
2017-07-04T08:03:19.987Z,1.50
2017-07-04T08:05:47.386Z,1.80
2017-07-04T08:08:14.774Z,1.33
2017-07-04T08:10:42.183Z,1.70
2017-07-04T08:13:09.784Z,2.00
2017-07-04T08:15:37.187Z,1.43
2017-07-04T08:18:04.584Z,1.47
2017-07-04T08:20:31.992Z,1.50
2017-07-04T08:22:59.393Z,1.20
2017-07-04T08:25:26.792Z,1.43
2017-07-04T08:27:54.184Z,1.00
2017-07-04T08:30:21.575Z,1.00
2017-07-04T08:32:48.987Z,0.90
2017-07-04T08:35:16.376Z,0.90
2017-07-04T08:37:43.780Z,1.00
2017-07-04T08:40:11.170Z,1.43
2017-07-04T08:42:38.578Z,1.30
2017-07-04T08:45:05.968Z,1.53
2017-07-04T08:47:33.375Z,1.10
2017-07-04T08:50:00.769Z,1.30
2017-07-04T08:52:28.172Z,1.37
2017-07-04T08:54:55.564Z,1.70
2017-07-04T08:57:22.964Z,1.30
2017-07-04T08:59:50.370Z,1.20
2017-07-04T09:02:17.764Z,1.23
2017-07-04T09:04:45.164Z,1.23
2017-07-04T09:07:12.568Z,0.90
2017-07-04T09:09:39.955Z,1.40
2017-07-04T09:12:07.356Z,1.10
2017-07-04T09:14:34.745Z,1.23
2017-07-04T09:17:02.151Z,1.00
2017-07-04T09:19:29.542Z,1.17
2017-07-04T09:21:56.940Z,1.27
2017-07-04T09:24:24.339Z,1.60
2017-07-04T09:26:51.731Z,1.27
2017-07-04T09:29:19.352Z,1.07
2017-07-04T09:31:46.740Z,1.33
2017-07-04T09:34:14.140Z,1.37
2017-07-04T09:36:41.527Z,1.30
2017-07-04T09:39:08.927Z,1.30
2017-07-04T09:41:36.324Z,1.10
2017-07-04T09:44:03.931Z,1.30
2017-07-04T09:46:31.336Z,1.13
2017-07-04T09:48:58.744Z,1.33
2017-07-04T09:51:26.132Z,1.47
2017-07-04T09:53:53.541Z,1.37
2017-07-04T09:56:20.935Z,1.00
2017-07-04T09:58:48.341Z,1.20
2017-07-04T10:01:15.936Z,1.43
2017-07-04T10:03:43.336Z,1.57
2017-07-04T10:06:10.743Z,1.00
2017-07-04T10:08:38.140Z,1.40
2017-07-04T10:11:05.527Z,1.03
2017-07-04T10:13:32.927Z,1.10
2017-07-04T10:16:00.314Z,1.00
2017-07-04T10:18:27.711Z,0.90
2017-07-04T10:20:55.111Z,1.00
2017-07-04T10:23:22.532Z,1.20
2017-07-04T10:25:49.908Z,1.17
2017-07-04T10:28:17.311Z,1.07
2017-07-04T10:30:44.718Z,1.10
2017-07-04T10:33:12.125Z,1.43
2017-07-04T10:35:39.525Z,1.40
2017-07-04T10:38:06.926Z,1.20
2017-07-04T10:40:34.538Z,1.13
2017-07-04T10:43:01.929Z,0.90
2017-07-04T10:45:29.327Z,1.10
2017-07-04T10:47:56.727Z,1.00
2017-07-04T10:50:24.127Z,1.10
2017-07-04T10:52:51.522Z,1.07
2017-07-04T10:55:18.921Z,1.33
2017-07-04T10:57:46.322Z,1.10
2017-07-04T11:00:13.782Z,1.33
2017-07-04T11:02:41.167Z,1.00
2017-07-04T11:05:08.572Z,1.00
2017-07-04T11:07:35.955Z,1.70
2017-07-04T11:10:03.352Z,1.93
2017-07-04T11:12:30.745Z,1.00
2017-07-04T11:14:58.137Z,1.13
2017-07-04T11:17:25.539Z,1.10
2017-07-04T11:19:52.939Z,1.00
2017-07-04T11:22:20.339Z,1.40
2017-07-04T11:24:47.738Z,0.80
2017-07-04T11:27:15.128Z,1.27
2017-07-04T11:29:42.538Z,1.67
2017-07-04T11:32:09.928Z,1.00
2017-07-04T11:34:37.339Z,0.90
2017-07-04T11:37:04.727Z,1.30
2017-07-04T11:39:32.131Z,1.10
2017-07-04T11:41:59.521Z,1.10
2017-07-04T11:44:26.924Z,1.07
2017-07-04T11:46:54.319Z,1.10
2017-07-04T11:49:22.495Z,1.13
2017-07-04T11:51:49.891Z,1.40
2017-07-04T11:54:17.331Z,0.97
2017-07-04T11:56:44.675Z,1.10
2017-07-04T11:59:12.074Z,1.00
2017-07-04T12:01:39.477Z,1.20
2017-07-04T12:04:07.082Z,1.30
2017-07-04T12:06:34.475Z,1.17
2017-07-04T12:09:02.079Z,1.60
2017-07-04T12:11:29.486Z,1.10
2017-07-04T12:13:56.879Z,1.73
2017-07-04T12:16:24.287Z,1.13
2017-07-04T12:18:51.735Z,1.10
2017-07-04T12:21:19.133Z,1.13
2017-07-04T12:23:46.527Z,1.73
2017-07-04T12:26:14.163Z,1.33
2017-07-04T12:28:41.547Z,1.30
2017-07-04T12:31:08.948Z,0.93
2017-07-04T12:33:36.348Z,1.00
2017-07-04T12:36:03.768Z,1.33
2017-07-04T12:38:31.163Z,1.23
2017-07-04T12:40:58.563Z,1.37
2017-07-04T12:43:25.948Z,1.10
2017-07-04T12:45:53.355Z,1.40
2017-07-04T12:48:21.018Z,0.97
2017-07-04T12:50:48.415Z,1.47
2017-07-04T12:53:15.811Z,1.23
2017-07-04T12:55:43.211Z,1.33
2017-07-04T12:58:10.604Z,1.37
2017-07-04T13:00:38.011Z,1.43
2017-07-04T13:03:05.396Z,1.10
2017-07-04T13:05:32.791Z,1.37
2017-07-04T13:08:00.183Z,1.10
2017-07-04T13:10:27.576Z,1.37
2017-07-04T13:12:54.985Z,1.30
2017-07-04T13:15:22.428Z,1.27
2017-07-04T13:17:49.784Z,1.00
2017-07-04T13:20:17.177Z,1.07
2017-07-04T13:22:44.581Z,1.10
2017-07-04T13:25:11.969Z,1.40
2017-07-04T13:27:39.368Z,0.90
2017-07-04T13:30:06.761Z,1.23
2017-07-04T13:32:34.375Z,0.80
2017-07-04T13:35:01.770Z,0.93
2017-07-04T13:37:29.163Z,1.10
2017-07-04T13:39:56.561Z,0.80
2017-07-04T13:42:23.960Z,1.20
2017-07-04T13:44:51.364Z,0.90
2017-07-04T13:47:18.763Z,1.73
2017-07-04T13:49:46.159Z,1.60
2017-07-04T13:52:13.568Z,1.10
2017-07-04T13:54:41.173Z,1.20
2017-07-04T13:57:08.573Z,1.47
2017-07-04T13:59:35.964Z,0.93
2017-07-04T14:02:03.363Z,1.13
2017-07-04T14:04:30.754Z,1.30
2017-07-04T14:06:58.193Z,1.63
2017-07-04T14:09:25.581Z,1.20
2017-07-04T14:11:52.984Z,1.33
2017-07-04T14:14:20.376Z,1.10
2017-07-04T14:16:49.646Z,1.30
2017-07-04T14:19:17.040Z,2.33
2017-07-04T14:21:44.815Z,1.23
2017-07-04T14:24:12.230Z,0.90
2017-07-04T14:26:39.620Z,1.03
2017-07-04T14:29:07.040Z,1.07
2017-07-04T14:31:34.435Z,1.20
2017-07-04T14:36:36.740Z,1.20
2017-07-04T14:39:04.140Z,1.40
2017-07-04T14:41:31.531Z,1.20
2017-07-04T14:43:58.942Z,1.10
2017-07-04T14:46:26.336Z,1.40
2017-07-04T14:48:53.736Z,1.50
2017-07-04T14:51:21.133Z,1.60
2017-07-04T14:53:48.535Z,1.27
2017-07-04T14:56:15.931Z,1.20
2017-07-04T14:58:43.333Z,1.20
2017-07-04T15:01:10.936Z,1.40
2017-07-04T15:03:38.624Z,1.27
2017-07-04T15:06:06.025Z,0.80
2017-07-04T15:08:33.419Z,1.10
2017-07-04T15:11:00.807Z,1.53
2017-07-04T15:13:28.210Z,1.40
2017-07-04T15:15:55.594Z,1.17
2017-07-04T15:18:23.013Z,1.27
2017-07-04T15:20:50.617Z,1.37
2017-07-04T15:23:18.011Z,1.97
2017-07-04T15:25:45.399Z,1.40
2017-07-04T15:28:12.800Z,1.10
2017-07-04T15:30:40.412Z,1.30
2017-07-04T15:33:07.819Z,1.30
2017-07-04T15:35:35.217Z,1.00
2017-07-04T15:38:02.619Z,1.23
2017-07-04T15:40:30.053Z,1.27
2017-07-04T15:42:57.451Z,1.20
2017-07-04T15:45:24.867Z,1.33
2017-07-04T15:47:52.272Z,1.47
2017-07-04T15:50:19.672Z,1.33
2017-07-04T15:52:47.065Z,1.30
2017-07-04T15:55:14.460Z,1.27
2017-07-04T15:57:42.064Z,1.20
2017-07-04T16:00:09.472Z,1.00
2017-07-04T16:02:36.866Z,1.30
2017-07-04T16:05:04.274Z,1.50
2017-07-04T16:07:31.672Z,1.73
2017-07-04T16:09:59.088Z,1.33
2017-07-04T16:12:26.468Z,1.37
2017-07-04T16:14:53.864Z,1.60
2017-07-04T16:17:21.253Z,0.90
2017-07-04T16:19:48.648Z,0.97
2017-07-04T16:22:16.038Z,1.30
2017-07-04T16:24:43.439Z,1.43
2017-07-04T16:27:10.831Z,0.90
2017-07-04T16:29:38.239Z,1.17
2017-07-04T16:32:05.633Z,1.43
2017-07-04T16:34:33.024Z,1.30
2017-07-04T16:37:00.415Z,1.23
2017-07-04T16:39:27.818Z,1.70
2017-07-04T16:41:55.208Z,1.30
2017-07-04T16:44:22.609Z,1.40
2017-07-04T16:46:50.010Z,1.10
2017-07-04T16:49:17.411Z,1.60
2017-07-04T16:51:44.816Z,1.03
2017-07-04T16:54:12.224Z,1.40
2017-07-04T16:56:39.621Z,1.33
2017-07-04T16:59:07.017Z,1.50
2017-07-04T17:01:34.416Z,1.20
2017-07-04T17:04:01.808Z,1.20
2017-07-04T17:06:29.210Z,1.43
2017-07-04T17:08:56.607Z,2.20
2017-07-04T17:11:23.996Z,1.57
2017-07-04T17:13:51.387Z,1.50
2017-07-04T17:16:18.779Z,1.23
2017-07-04T17:18:46.180Z,1.67
2017-07-04T17:21:13.583Z,1.33
2017-07-04T17:23:40.968Z,1.57
2017-07-04T17:26:08.363Z,1.77
2017-07-04T17:28:35.758Z,1.20
2017-07-04T17:31:03.163Z,1.73
2017-07-04T17:33:30.548Z,1.27
2017-07-04T17:35:57.976Z,1.20
2017-07-04T17:38:25.375Z,1.50
2017-07-04T17:40:52.783Z,1.30
2017-07-04T17:43:20.181Z,2.07
2017-07-04T17:45:47.586Z,1.83
2017-07-04T17:48:14.982Z,1.43
2017-07-04T17:50:42.384Z,1.20
2017-07-04T17:53:09.776Z,1.40
2017-07-04T17:55:37.384Z,1.47
2017-07-04T17:58:04.790Z,1.33
2017-07-04T18:00:32.184Z,1.20
2017-07-04T18:02:59.627Z,1.20
2017-07-04T18:05:27.011Z,1.70
2017-07-04T18:07:54.409Z,1.30
2017-07-04T18:10:21.799Z,1.27
2017-07-04T18:12:49.199Z,1.43
2017-07-04T18:15:16.589Z,1.20
2017-07-04T18:17:43.991Z,1.30
2017-07-04T18:20:11.386Z,1.10
2017-07-04T18:22:38.775Z,1.27
2017-07-04T18:25:06.164Z,1.23
2017-07-04T18:27:33.559Z,1.20
2017-07-04T18:30:00.951Z,1.57
2017-07-04T18:32:28.352Z,1.30
2017-07-04T18:34:55.743Z,1.20
2017-07-04T18:37:23.140Z,1.90
2017-07-04T18:39:50.527Z,1.67
2017-07-04T18:42:17.928Z,1.20
2017-07-04T18:44:45.319Z,1.57
2017-07-04T18:47:12.711Z,1.37
2017-07-04T18:49:40.099Z,1.67
2017-07-04T18:52:07.497Z,1.73
2017-07-04T18:54:35.124Z,1.20
2017-07-04T18:57:02.519Z,1.47
2017-07-04T18:59:29.910Z,1.40
2017-07-04T19:01:57.315Z,1.53
2017-07-04T19:04:24.784Z,1.43
2017-07-04T19:06:52.188Z,1.90
2017-07-04T19:09:19.584Z,1.40
2017-07-04T19:11:46.987Z,1.70
2017-07-04T19:14:14.412Z,1.10
2017-07-04T19:16:41.811Z,1.77
2017-07-04T19:19:09.207Z,1.40
2017-07-04T19:21:36.622Z,1.40
2017-07-04T19:24:04.096Z,1.00
2017-07-04T19:26:31.643Z,1.47
2017-07-04T19:28:59.057Z,1.70
2017-07-04T19:31:26.527Z,1.27
2017-07-04T19:33:53.915Z,1.37
2017-07-04T19:36:21.303Z,1.33
2017-07-04T19:38:48.702Z,1.97
2017-07-04T19:41:16.106Z,2.37
2017-07-04T19:43:43.503Z,1.70
2017-07-04T19:46:11.442Z,1.63
2017-07-04T19:48:38.891Z,1.67
2017-07-04T19:51:06.283Z,1.60
2017-07-04T19:53:34.010Z,1.33
2017-07-04T19:56:01.471Z,1.70
2017-07-04T19:58:28.891Z,1.87
2017-07-04T20:00:56.285Z,2.43
2017-07-04T20:03:23.675Z,1.50
2017-07-04T20:05:51.076Z,1.60
2017-07-04T20:08:18.468Z,1.80
2017-07-04T20:10:45.860Z,2.10
2017-07-04T20:13:13.260Z,2.03
2017-07-04T20:15:40.652Z,1.73
2017-07-04T20:18:08.374Z,1.97
2017-07-04T20:20:35.768Z,2.33
2017-07-04T20:23:03.173Z,1.50
2017-07-04T20:25:30.566Z,2.53
2017-07-04T20:27:58.203Z,1.47
2017-07-04T20:30:25.601Z,1.60
2017-07-04T20:32:53.004Z,1.73
2017-07-04T20:35:20.387Z,2.00
2017-07-04T20:37:47.785Z,1.80
2017-07-04T20:40:15.180Z,2.20
2017-07-04T20:42:42.570Z,1.87
2017-07-04T20:45:09.971Z,1.73
2017-07-04T20:47:37.374Z,1.97
2017-07-04T20:50:04.763Z,1.97
2017-07-04T20:52:32.153Z,1.70
2017-07-04T20:54:59.552Z,1.47
2017-07-04T20:57:26.944Z,1.87
2017-07-04T20:59:54.344Z,1.90
2017-07-04T21:02:21.736Z,1.60
2017-07-04T21:04:49.131Z,2.30
2017-07-04T21:07:16.533Z,1.30
2017-07-04T21:09:43.914Z,1.70
2017-07-04T21:12:11.300Z,1.57
2017-07-04T21:14:38.705Z,1.70
2017-07-04T21:17:06.098Z,1.83
2017-07-04T21:19:33.496Z,1.57
2017-07-04T21:24:34.928Z,1.80
2017-07-04T21:27:02.384Z,1.93
2017-07-04T21:29:29.791Z,2.17
2017-07-04T21:31:57.189Z,1.57
2017-07-04T21:34:24.586Z,1.80
2017-07-04T21:36:51.978Z,1.77
2017-07-04T21:39:19.387Z,2.37
2017-07-04T21:41:46.777Z,1.50
2017-07-04T21:44:14.164Z,1.70
2017-07-04T21:46:41.567Z,2.00
2017-07-04T21:49:08.960Z,1.90
2017-07-04T21:51:36.362Z,1.63
2017-07-04T21:54:03.775Z,1.70
2017-07-04T21:56:31.167Z,1.70
2017-07-04T21:58:58.558Z,1.77
2017-07-04T22:01:25.960Z,2.00
2017-07-04T22:03:53.360Z,1.77
2017-07-04T22:06:20.761Z,1.50
2017-07-04T22:08:48.153Z,2.00
2017-07-04T22:11:15.549Z,1.97
2017-07-04T22:13:42.943Z,1.47
2017-07-04T22:16:10.337Z,1.80
2017-07-04T22:18:37.956Z,1.83
2017-07-04T22:21:05.356Z,1.87
2017-07-04T22:23:32.959Z,1.43
2017-07-04T22:26:00.360Z,1.80
2017-07-04T22:28:27.751Z,1.93
2017-07-04T22:30:55.347Z,1.70
2017-07-04T22:33:22.752Z,1.97
2017-07-04T22:35:50.152Z,1.80
2017-07-04T22:38:17.541Z,1.80
2017-07-04T22:40:45.166Z,1.93
2017-07-04T22:43:12.556Z,1.97
2017-07-04T22:45:40.179Z,1.80
2017-07-04T22:48:07.581Z,1.97
2017-07-04T22:50:34.976Z,2.00
2017-07-04T22:53:02.362Z,1.77
2017-07-04T22:55:29.756Z,2.30
2017-07-04T22:57:57.149Z,2.10
2017-07-04T23:00:24.555Z,1.90
2017-07-04T23:02:51.944Z,2.43
2017-07-04T23:05:19.339Z,1.90
2017-07-04T23:07:46.729Z,1.83
2017-07-04T23:10:14.118Z,1.90
2017-07-04T23:12:41.516Z,1.77
2017-07-04T23:15:08.906Z,1.93
2017-07-04T23:17:36.304Z,1.60
2017-07-04T23:20:03.691Z,1.63
2017-07-04T23:22:31.083Z,1.63
2017-07-04T23:24:58.471Z,1.60
2017-07-04T23:27:25.859Z,2.03
2017-07-04T23:29:53.252Z,1.77
2017-07-04T23:32:20.652Z,1.73
2017-07-04T23:34:48.040Z,1.73
2017-07-04T23:37:15.439Z,1.80
2017-07-04T23:39:42.829Z,2.00
2017-07-04T23:42:10.232Z,2.30
2017-07-04T23:44:37.632Z,1.93
2017-07-04T23:47:05.884Z,1.70
2017-07-04T23:49:33.271Z,2.10
2017-07-04T23:52:00.673Z,2.50
2017-07-04T23:54:28.070Z,1.90
2017-07-04T23:56:55.671Z,2.17
2017-07-04T23:59:23.067Z,1.77
